Time,TemperatureF,DewpointF,PressureIn,WindDirection,WindDirectionDegrees,WindSpeedMPH,WindSpeedGustMPH,Humidity,HourlyPrecipIn,Conditions,Clouds,dailyrainin,SoftwareType,DateUTC
2013-11-11 01:52:00,39.0,-99.9,30.26,SSW,208,4.0,5.0,-999,-99.99,,,-99.99,,2013-11-11 06:52:00,
2013-11-11 04:22:00,39.0,-99.9,30.21,SSW,194,8.0,11.0,-999,-99.99,,,-99.99,,2013-11-11 09:22:00,
2013-11-11 07:22:00,41.0,-99.9,30.14,SSW,208,13.0,19.0,-999,-99.99,,,-99.99,,2013-11-11 12:22:00,
2013-11-11 11:53:00,46.0,-99.9,30.09,WSW,248,7.0,14.0,-999,-99.99,,,-99.99,,2013-11-11 16:53:00,
2013-11-11 15:22:00,44.0,-99.9,30.06,WNW,298,10.0,15.0,-999,-99.99,,,-99.99,,2013-11-11 20:22:00,
2013-11-11 16:22:00,42.0,-99.9,30.07,WNW,291,8.0,14.0,-999,-99.99,,,-99.99,,2013-11-11 21:22:00,
2013-11-11 17:53:00,38.0,-99.9,30.12,NNW,327,11.0,17.0,-999,-99.99,,,-99.99,,2013-11-11 22:53:00,
2013-11-11 19:22:00,32.0,-99.9,30.18,NNW,348,7.0,17.0,-999,-99.99,,,-99.99,,2013-11-12 00:22:00,
2013-11-11 19:42:00,-999.0,-99.9,30.19,North,349,9.0,13.0,-999,-99.99,,,-99.99,,2013-11-12 00:42:00,
2013-11-11 19:52:00,32.0,-99.9,30.19,North,355,12.0,19.0,-999,-99.99,,,-99.99,,2013-11-12 00:52:00,
2013-11-11 20:02:00,-999.0,-99.9,30.20,NNW,346,10.0,19.0,-999,-99.99,,,-99.99,,2013-11-12 01:02:00,
2013-11-11 20:11:00,-999.0,-99.9,30.21,NNW,343,13.0,21.0,-999,-99.99,,,-99.99,,2013-11-12 01:11:00,
2013-11-11 20:22:00,-999.0,-99.9,30.22,NNW,342,12.0,20.0,-999,-99.99,,,-99.99,,2013-11-12 01:22:00,
2013-11-11 20:32:00,-999.0,-99.9,30.22,NNW,335,10.0,23.0,-999,-99.99,,,-99.99,,2013-11-12 01:32:00,
2013-11-11 20:42:00,-999.0,-99.9,30.23,North,349,11.0,20.0,-999,-99.99,,,-99.99,,2013-11-12 01:42:00,
2013-11-11 21:01:00,-999.0,-99.9,30.24,North,-999,12.0,23.0,-999,-99.99,,,-99.99,,2013-11-12 02:01:00,
2013-11-11 21:12:00,-999.0,-99.9,30.24,North,-999,12.0,19.0,-999,-99.99,,,-99.99,,2013-11-12 02:12:00,
2013-11-11 21:32:00,-999.0,-99.9,30.25,North,357,9.0,16.0,-999,-99.99,,,-99.99,,2013-11-12 02:32:00,
2013-11-11 21:42:00,-999.0,-99.9,30.26,NNW,347,6.0,9.0,-999,-99.99,,,-99.99,,2013-11-12 02:42:00,
2013-11-11 21:52:00,29.0,-99.9,30.26,North,354,4.0,10.0,-999,-99.99,,,-99.99,,2013-11-12 02:52:00,
2013-11-11 22:02:00,-999.0,-99.9,30.26,NNW,334,5.0,10.0,-999,-99.99,,,-99.99,,2013-11-12 03:02:00,
2013-11-11 22:12:00,-999.0,-99.9,30.26,NNW,342,5.0,10.0,-999,-99.99,,,-99.99,,2013-11-12 03:12:00,
2013-11-11 22:34:00,-999.0,-99.9,30.27,NNW,329,6.0,11.0,-999,-99.99,,,-99.99,,2013-11-12 03:34:00,
2013-11-11 22:45:00,-999.0,-99.9,30.28,NNW,348,8.0,16.0,-999,-99.99,,,-99.99,,2013-11-12 03:45:00,
2013-11-11 23:05:00,-999.0,-99.9,30.29,NNW,347,7.0,14.0,-999,-99.99,,,-99.99,,2013-11-12 04:05:00,
2013-11-11 23:14:00,-999.0,-99.9,30.29,NNW,345,7.0,14.0,-999,-99.99,,,-99.99,,2013-11-12 04:14:00,
2013-11-11 23:24:00,-999.0,-99.9,30.29,North,357,12.0,18.0,-999,-99.99,,,-99.99,,2013-11-12 04:24:00,
2013-11-11 23:33:00,-999.0,-99.9,30.29,NNW,347,6.0,17.0,-999,-99.99,,,-99.99,,2013-11-12 04:33:00,
2013-11-11 23:44:00,-999.0,-99.9,30.30,NNW,337,9.0,18.0,-999,-99.99,,,-99.99,,2013-11-12 04:44:00,
2013-11-11 23:53:00,30.0,-99.9,30.30,NNW,332,12.0,18.0,-999,-99.99,,,-99.99,,2013-11-12 04:53:00,